Time;durP1;ratioP1;P1;durP2;ratioP2;P2;SDS_P1;SDS_P2;PMS_P1;PMS_P2;Temp;Humidity;BMP_temperature;BMP_pressure;BME280_temperature;BME280_humidity;BME280_pressure;Samples;Min_cycle;Max_cycle;Signal;HPM_P1;HPM_P2
2023/12/22 00:02:46;;;;;;;5.37;1.70;;;7.50;99.90;;;;;;10366542;28;20277;-64
2023/12/22 00:07:50;;;;;;;9.20;2.10;;;7.50;99.90;;;;;;10365437;28;20204;-65
2023/12/22 00:12:54;;;;;;;7.13;1.83;;;7.50;99.90;;;;;;10367888;28;20282;-64
2023/12/22 00:17:59;;;;;;;11.23;2.10;;;7.40;99.90;;;;;;10365778;28;20259;-66
2023/12/22 00:23:03;;;;;;;9.63;2.40;;;7.30;99.90;;;;;;10366632;28;20639;-64
2023/12/22 00:28:07;;;;;;;8.93;2.00;;;7.30;99.90;;;;;;10365375;28;20234;-64
2023/12/22 00:33:11;;;;;;;9.70;1.97;;;7.30;99.90;;;;;;10364039;28;20282;-64
2023/12/22 00:38:15;;;;;;;7.97;2.23;;;7.30;99.90;;;;;;10366297;28;20292;-65
2023/12/22 00:43:19;;;;;;;8.00;1.77;;;7.30;99.90;;;;;;10365827;28;20658;-65
2023/12/22 00:48:24;;;;;;;4.50;1.60;;;7.20;99.90;;;;;;10365753;28;20255;-65
2023/12/22 00:53:27;;;;;;;6.90;2.03;;;7.30;99.90;;;;;;10371595;28;20252;-66
2023/12/22 00:58:31;;;;;;;5.97;1.60;;;7.20;99.90;;;;;;10369939;28;20203;-65
2023/12/22 01:03:36;;;;;;;6.70;1.43;;;7.20;99.90;;;;;;10371451;28;20232;-65
2023/12/22 01:08:40;;;;;;;6.27;1.80;;;7.20;99.90;;;;;;10371544;28;20205;-68
2023/12/22 01:13:44;;;;;;;8.90;2.30;;;7.20;99.90;;;;;;10371663;28;20228;-67
2023/12/22 01:18:49;;;;;;;10.27;2.77;;;7.30;99.90;;;;;;10369395;28;20232;-67
2023/12/22 01:23:52;;;;;;;9.73;2.20;;;7.30;99.90;;;;;;10371121;28;20812;-66
2023/12/22 01:28:56;;;;;;;15.10;2.67;;;7.30;99.90;;;;;;10372118;28;20208;-64
2023/12/22 01:34:01;;;;;;;10.10;2.83;;;7.40;99.90;;;;;;10370753;28;20602;-65
2023/12/22 01:39:05;;;;;;;10.57;1.97;;;7.40;99.90;;;;;;10367899;28;20212;-65
2023/12/22 01:44:12;;;;;;;7.63;1.80;;;7.40;99.90;;;;;;10369640;28;20231;-65
2023/12/22 01:49:17;;;;;;;4.70;1.00;;;7.50;99.90;;;;;;10288351;28;20339;-64
2023/12/22 01:54:25;;;;;;;4.90;1.07;;;7.50;99.90;;;;;;10022780;28;20318;-64
2023/12/22 01:59:37;;;;;;;1.93;0.40;;;7.50;99.90;;;;;;10036737;28;21111;-67
2023/12/22 02:04:54;;;;;;;3.60;0.70;;;7.50;99.50;;;;;;10105772;28;20685;-60
2023/12/22 02:09:58;;;;;;;2.47;0.80;;;7.50;99.10;;;;;;10067285;28;20351;-60
2023/12/22 02:15:04;;;;;;;3.17;0.80;;;7.30;99.20;;;;;;10094253;28;20298;-63
2023/12/22 02:26:27;;;;;;;3.17;1.03;;;7.20;99.30;;;;;;10487335;28;20207;-91
2023/12/22 02:31:38;;;;;;;6.80;1.07;;;7.20;99.40;;;;;;10503460;22;20248;-62
2023/12/22 02:36:42;;;;;;;3.43;0.90;;;7.20;99.90;;;;;;10406407;28;20265;-62
2023/12/22 02:41:48;;;;;;;3.60;1.10;;;7.20;99.70;;;;;;10412847;28;20325;-63
2023/12/22 02:46:52;;;;;;;4.77;1.07;;;7.10;99.90;;;;;;10410434;28;20204;-63
2023/12/22 02:51:56;;;;;;;5.57;1.40;;;7.10;99.90;;;;;;10413435;28;20234;-62
2023/12/22 02:57:01;;;;;;;3.57;1.07;;;7.10;99.90;;;;;;10408376;28;20203;-62
2023/12/22 03:02:05;;;;;;;6.13;1.40;;;7.10;99.90;;;;;;10413238;28;20222;-63
2023/12/22 03:07:09;;;;;;;5.43;1.47;;;7.10;99.90;;;;;;10410984;28;20203;-62
2023/12/22 03:12:14;;;;;;;5.47;1.30;;;7.10;99.90;;;;;;10417047;28;20226;-61
2023/12/22 03:17:21;;;;;;;6.37;1.30;;;7.10;99.90;;;;;;10416225;28;20580;-62
2023/12/22 03:22:25;;;;;;;6.50;1.23;;;7.10;99.90;;;;;;10408571;28;20215;-63
2023/12/22 03:27:30;;;;;;;7.63;1.50;;;7.20;99.90;;;;;;10401104;28;20210;-63
2023/12/22 03:32:33;;;;;;;8.27;1.77;;;7.20;99.90;;;;;;10413860;28;20221;-63
2023/12/22 03:37:37;;;;;;;7.67;1.93;;;7.30;99.90;;;;;;10411824;28;20215;-63
2023/12/22 03:42:42;;;;;;;11.27;1.97;;;7.30;99.90;;;;;;10418992;28;20222;-62
2023/12/22 03:47:46;;;;;;;7.37;1.50;;;7.40;99.90;;;;;;10406577;28;20273;-61
2023/12/22 03:52:49;;;;;;;9.23;1.90;;;7.40;99.90;;;;;;10407575;28;20273;-63
2023/12/22 03:57:54;;;;;;;13.20;2.87;;;7.30;99.90;;;;;;10409679;28;20221;-63
2023/12/22 04:02:58;;;;;;;11.23;2.23;;;7.30;99.90;;;;;;10414908;28;20281;-63
2023/12/22 04:08:02;;;;;;;11.87;2.50;;;7.30;99.90;;;;;;10407212;28;20203;-61
2023/12/22 04:13:07;;;;;;;13.07;2.37;;;7.30;99.90;;;;;;10402216;28;20602;-63
2023/12/22 04:18:10;;;;;;;10.00;2.23;;;7.30;99.90;;;;;;10408869;28;20203;-63
2023/12/22 04:23:14;;;;;;;5.70;1.30;;;7.40;99.90;;;;;;10409776;28;20280;-63
2023/12/22 04:28:19;;;;;;;7.10;1.87;;;7.30;99.90;;;;;;10412784;28;20202;-63
2023/12/22 04:33:23;;;;;;;10.40;2.50;;;7.10;99.90;;;;;;10417023;28;20272;-63
2023/12/22 04:38:26;;;;;;;3.20;0.83;;;7.00;99.90;;;;;;10407418;28;20226;-63
2023/12/22 04:43:31;;;;;;;4.27;0.87;;;6.90;99.90;;;;;;10417012;28;20223;-62
2023/12/22 04:48:35;;;;;;;6.77;1.53;;;6.90;99.90;;;;;;10413691;28;20212;-61
2023/12/22 04:53:39;;;;;;;9.00;1.87;;;6.80;99.90;;;;;;10418880;28;20235;-63
2023/12/22 04:58:44;;;;;;;8.60;1.77;;;6.80;99.90;;;;;;10427157;28;20276;-62
2023/12/22 05:03:47;;;;;;;4.13;0.97;;;6.70;99.90;;;;;;10418691;28;20223;-62
2023/12/22 05:08:51;;;;;;;4.97;1.33;;;6.70;99.90;;;;;;10417539;28;20261;-62
2023/12/22 05:13:56;;;;;;;15.50;3.43;;;6.70;99.90;;;;;;10421021;28;20230;-62
2023/12/22 05:19:03;;;;;;;6.00;2.17;;;6.70;99.90;;;;;;10416863;28;20204;-62
2023/12/22 05:24:07;;;;;;;6.33;1.70;;;6.70;99.90;;;;;;10422316;28;20246;-61
2023/12/22 05:29:12;;;;;;;7.70;1.77;;;6.80;99.90;;;;;;10412682;28;20208;-62
2023/12/22 05:34:16;;;;;;;5.07;1.63;;;6.80;99.90;;;;;;10418373;28;20274;-62
2023/12/22 05:39:20;;;;;;;4.33;1.47;;;6.80;99.90;;;;;;10416842;28;20253;-62
2023/12/22 05:44:29;;;;;;;7.37;1.40;;;6.80;99.90;;;;;;10415714;28;20217;-63
2023/12/22 05:49:32;;;;;;;8.50;1.17;;;6.80;99.90;;;;;;10408436;28;20200;-61
2023/12/22 05:54:38;;;;;;;5.40;1.67;;;6.80;99.90;;;;;;10405653;28;20622;-61
2023/12/22 05:59:43;;;;;;;7.27;1.67;;;6.80;99.90;;;;;;10419298;28;20210;-60
2023/12/22 06:04:46;;;;;;;5.70;1.40;;;6.90;99.90;;;;;;10407045;28;20598;-61
2023/12/22 06:09:50;;;;;;;7.07;1.90;;;6.90;99.90;;;;;;10412692;28;20751;-63
2023/12/22 06:14:55;;;;;;;9.77;1.97;;;6.90;99.90;;;;;;10415253;28;20230;-62
2023/12/22 06:19:59;;;;;;;8.93;1.63;;;6.90;99.90;;;;;;10411664;28;20207;-62
2023/12/22 06:25:07;;;;;;;13.10;2.77;;;6.90;99.90;;;;;;10411099;28;20216;-62
2023/12/22 06:30:13;;;;;;;11.57;2.27;;;6.90;99.90;;;;;;10408385;28;20254;-61
2023/12/22 06:35:16;;;;;;;10.10;2.13;;;7.00;99.90;;;;;;10403984;28;20268;-60
2023/12/22 06:40:20;;;;;;;8.90;1.80;;;6.90;99.90;;;;;;10324528;28;21736;-63
2023/12/22 06:45:25;;;;;;;11.90;2.37;;;7.00;99.90;;;;;;10412593;28;20221;-61
2023/12/22 06:50:29;;;;;;;12.07;2.57;;;7.00;99.90;;;;;;10407980;28;20203;-61
2023/12/22 06:55:33;;;;;;;13.70;2.57;;;7.00;99.90;;;;;;10424059;28;20313;-63
2023/12/22 07:00:38;;;;;;;6.53;2.20;;;7.00;99.90;;;;;;10416948;28;20203;-60
2023/12/22 07:05:42;;;;;;;7.50;2.20;;;7.10;99.90;;;;;;10413718;28;20676;-61
2023/12/22 07:10:46;;;;;;;11.03;2.10;;;7.10;99.90;;;;;;10411412;28;20242;-61
2023/12/22 07:15:51;;;;;;;6.80;2.03;;;7.10;99.90;;;;;;10415613;28;20305;-59
2023/12/22 07:20:55;;;;;;;12.27;2.47;;;7.20;99.90;;;;;;10417438;28;20253;-60
2023/12/22 07:25:58;;;;;;;9.43;2.47;;;7.20;99.90;;;;;;10419038;28;20225;-61
2023/12/22 07:31:03;;;;;;;9.30;3.00;;;7.20;99.90;;;;;;10423822;28;20504;-62
2023/12/22 07:36:07;;;;;;;13.23;2.90;;;7.30;99.90;;;;;;10408930;28;20801;-64
2023/12/22 07:41:11;;;;;;;16.57;2.83;;;7.30;99.90;;;;;;10403287;28;20231;-64
2023/12/22 07:46:19;;;;;;;9.80;3.33;;;7.40;99.90;;;;;;10412590;28;20292;-63
2023/12/22 07:51:23;;;;;;;12.60;3.33;;;7.40;99.90;;;;;;10402082;28;20348;-64
2023/12/22 07:56:28;;;;;;;13.60;3.20;;;7.40;99.90;;;;;;10418991;28;20228;-64
2023/12/22 08:01:33;;;;;;;14.90;3.40;;;7.50;99.90;;;;;;10413739;28;20207;-63
2023/12/22 08:06:37;;;;;;;8.47;2.83;;;7.50;99.90;;;;;;10418502;28;20231;-65
2023/12/22 08:11:40;;;;;;;15.03;3.03;;;7.60;99.90;;;;;;10416334;28;20727;-63
2023/12/22 08:16:47;;;;;;;14.40;3.50;;;7.70;99.90;;;;;;10417336;28;20266;-63
2023/12/22 08:21:53;;;;;;;12.43;3.20;;;7.80;99.90;;;;;;10412979;28;20597;-63
2023/12/22 08:26:57;;;;;;;14.53;3.40;;;7.80;99.90;;;;;;10415500;28;20724;-63
2023/12/22 08:32:02;;;;;;;13.53;3.67;;;7.90;99.90;;;;;;10415175;28;20231;-63
2023/12/22 08:37:06;;;;;;;21.07;4.33;;;8.10;99.90;;;;;;10414542;28;20196;-63
2023/12/22 08:42:09;;;;;;;19.00;4.47;;;8.20;99.90;;;;;;10416492;28;20273;-63
2023/12/22 08:47:14;;;;;;;16.83;4.00;;;8.20;99.90;;;;;;10416690;28;20226;-63
2023/12/22 08:52:18;;;;;;;14.27;3.60;;;8.30;99.90;;;;;;10412409;28;20734;-63
2023/12/22 08:57:22;;;;;;;22.50;5.07;;;8.40;99.90;;;;;;10420100;28;20203;-63
2023/12/22 09:02:27;;;;;;;19.80;4.73;;;8.40;99.90;;;;;;10413748;28;20216;-63
2023/12/22 09:07:30;;;;;;;19.80;4.40;;;8.50;99.90;;;;;;10415947;28;20200;-63
2023/12/22 09:12:34;;;;;;;28.47;5.50;;;8.60;99.90;;;;;;10412718;28;20224;-63
2023/12/22 09:17:41;;;;;;;22.83;6.20;;;8.60;99.90;;;;;;10414956;28;20208;-63
2023/12/22 09:22:47;;;;;;;22.87;6.23;;;8.70;99.90;;;;;;10414266;28;20577;-62
2023/12/22 09:27:51;;;;;;;14.97;4.00;;;8.70;99.90;;;;;;10415854;28;20204;-62
2023/12/22 09:32:56;;;;;;;10.50;2.83;;;8.70;99.90;;;;;;10411825;28;20286;-63
2023/12/22 09:37:59;;;;;;;9.73;2.47;;;8.70;99.90;;;;;;10411560;28;20207;-63
2023/12/22 09:43:05;;;;;;;11.23;2.67;;;8.60;99.90;;;;;;10411606;28;20602;-62
2023/12/22 09:48:13;;;;;;;10.97;2.73;;;8.60;99.90;;;;;;10416681;28;20204;-63
2023/12/22 09:53:17;;;;;;;11.67;2.70;;;8.60;99.90;;;;;;10408088;28;20275;-62
2023/12/22 09:58:22;;;;;;;9.63;2.47;;;8.50;99.90;;;;;;10412738;28;20277;-63
2023/12/22 10:03:27;;;;;;;10.87;2.60;;;8.40;99.90;;;;;;10412934;28;20270;-63
2023/12/22 10:08:31;;;;;;;15.60;3.97;;;8.30;99.90;;;;;;10409025;28;20486;-64
2023/12/22 10:13:37;;;;;;;13.27;3.43;;;8.20;99.90;;;;;;10414917;28;20293;-63
2023/12/22 10:18:43;;;;;;;15.60;3.60;;;8.30;99.90;;;;;;10414341;28;20204;-63
2023/12/22 10:23:46;;;;;;;13.07;3.63;;;8.30;99.90;;;;;;10414465;28;20227;-63
2023/12/22 10:28:51;;;;;;;11.47;3.00;;;8.30;99.90;;;;;;10400365;28;20208;-63
2023/12/22 10:33:56;;;;;;;12.43;3.13;;;8.30;99.90;;;;;;10407074;28;20266;-66
2023/12/22 10:39:00;;;;;;;18.97;4.77;;;8.30;99.90;;;;;;10408675;28;20251;-65
2023/12/22 10:44:04;;;;;;;11.47;3.57;;;8.30;99.90;;;;;;10410169;28;20228;-63
2023/12/22 10:49:10;;;;;;;13.37;3.70;;;8.30;99.90;;;;;;10410388;28;20247;-65
2023/12/22 10:54:13;;;;;;;19.10;5.60;;;8.30;99.90;;;;;;10381473;28;20723;-64
2023/12/22 10:59:19;;;;;;;20.70;5.23;;;8.40;99.90;;;;;;10409293;28;20207;-64
2023/12/22 11:04:30;;;;;;;10.60;2.90;;;8.40;99.90;;;;;;10405820;28;20640;-64
2023/12/22 11:09:36;;;;;;;12.00;2.90;;;8.50;99.90;;;;;;10406477;28;20196;-64
2023/12/22 11:14:40;;;;;;;4.83;1.60;;;8.50;99.90;;;;;;10404573;28;20231;-62
2023/12/22 11:19:46;;;;;;;5.47;1.53;;;8.50;99.90;;;;;;10408587;28;20572;-62
2023/12/22 11:24:50;;;;;;;13.50;4.50;;;8.60;99.90;;;;;;10407325;28;20223;-63
2023/12/22 11:29:55;;;;;;;4.67;1.23;;;8.60;99.90;;;;;;10404096;28;20266;-64
2023/12/22 11:35:01;;;;;;;6.53;1.30;;;8.60;99.90;;;;;;10370694;28;20267;-63
2023/12/22 11:40:06;;;;;;;15.53;3.73;;;8.60;99.90;;;;;;10404126;28;20609;-64
2023/12/22 11:45:11;;;;;;;14.17;3.13;;;8.60;99.90;;;;;;10360776;28;20659;-64
2023/12/22 11:50:29;;;;;;;4.43;1.60;;;8.60;99.90;;;;;;10406664;28;20196;-63
2023/12/22 11:55:59;;;;;;;4.03;1.90;;;8.60;99.90;;;;;;10406792;28;20306;-62
2023/12/22 12:01:04;;;;;;;22.17;5.47;;;8.70;99.90;;;;;;10410373;28;20200;-65
2023/12/22 12:06:31;;;;;;;9.40;2.77;;;8.70;99.90;;;;;;10402369;28;20220;-64
2023/12/22 12:12:12;;;;;;;18.40;5.73;;;8.70;99.90;;;;;;10411363;28;20288;-64
2023/12/22 12:17:19;;;;;;;11.30;5.53;;;8.70;99.90;;;;;;10401917;28;20302;-63
2023/12/22 12:22:24;;;;;;;5.70;2.07;;;8.70;99.90;;;;;;10398953;28;20232;-63
2023/12/22 12:27:28;;;;;;;10.20;3.70;;;8.70;99.90;;;;;;10382819;28;20231;-63
2023/12/22 12:32:33;;;;;;;13.23;4.33;;;8.70;99.90;;;;;;10382232;28;20259;-61
2023/12/22 12:37:39;;;;;;;6.87;3.10;;;8.70;99.90;;;;;;10379669;28;20688;-64
2023/12/22 12:42:44;;;;;;;8.80;2.73;;;8.70;99.90;;;;;;10384083;28;20248;-62
2023/12/22 12:47:57;;;;;;;10.60;2.43;;;8.80;99.90;;;;;;10277741;28;21145;-62
2023/12/22 12:53:07;;;;;;;4.30;1.50;;;9.00;99.90;;;;;;10123728;28;20364;-62
2023/12/22 12:58:18;;;;;;;5.37;1.80;;;9.10;99.90;;;;;;10156448;28;21029;-64
2023/12/22 13:03:25;;;;;;;5.60;1.60;;;9.20;99.90;;;;;;10155663;28;20250;-65
2023/12/22 13:08:31;;;;;;;6.10;2.37;;;9.30;99.90;;;;;;10310190;28;20721;-65
2023/12/22 13:13:45;;;;;;;3.37;1.00;;;9.40;99.90;;;;;;10419829;28;20223;-65
2023/12/22 13:18:49;;;;;;;6.13;1.83;;;9.40;99.90;;;;;;10420461;28;20205;-62
2023/12/22 13:24:12;;;;;;;4.00;1.27;;;9.40;99.90;;;;;;10406441;28;20216;-66
2023/12/22 13:29:16;;;;;;;8.23;1.40;;;9.40;99.90;;;;;;10424086;28;20223;-63
2023/12/22 13:34:20;;;;;;;6.67;1.33;;;9.50;99.90;;;;;;10425180;28;20223;-61
2023/12/22 13:39:29;;;;;;;3.77;1.43;;;9.50;99.90;;;;;;10419655;28;20200;-63
2023/12/22 13:44:32;;;;;;;5.33;1.20;;;9.50;99.90;;;;;;10421708;28;20262;-63
2023/12/22 13:49:36;;;;;;;3.93;1.50;;;9.50;99.90;;;;;;10423089;28;20208;-64
2023/12/22 13:54:41;;;;;;;5.93;1.70;;;9.60;99.90;;;;;;10413774;28;20574;-64
2023/12/22 13:59:45;;;;;;;7.67;2.57;;;9.60;99.90;;;;;;10412444;28;20212;-64
2023/12/22 14:04:49;;;;;;;3.43;1.33;;;9.70;99.90;;;;;;10428076;28;20663;-65
2023/12/22 14:09:54;;;;;;;4.37;1.50;;;9.80;99.90;;;;;;10411492;28;20196;-63
2023/12/22 14:14:58;;;;;;;4.83;1.40;;;9.80;99.90;;;;;;10421235;28;20277;-65
2023/12/22 14:20:02;;;;;;;4.83;1.40;;;9.80;99.90;;;;;;10420776;28;20200;-64
2023/12/22 14:25:08;;;;;;;6.50;1.60;;;9.90;99.90;;;;;;10412342;28;20228;-64
2023/12/22 14:30:13;;;;;;;5.07;1.60;;;10.00;99.90;;;;;;10417138;28;20245;-64
2023/12/22 14:35:21;;;;;;;5.90;1.37;;;10.00;99.90;;;;;;10316559;28;20929;-62
2023/12/22 14:40:27;;;;;;;3.07;1.33;;;10.00;99.90;;;;;;10101538;28;20469;-62
2023/12/22 14:45:31;;;;;;;3.70;1.30;;;10.10;99.90;;;;;;10416445;28;20269;-63
2023/12/22 14:50:34;;;;;;;6.40;1.60;;;10.10;99.90;;;;;;10324582;28;20292;-63
2023/12/22 14:55:39;;;;;;;6.33;1.60;;;10.10;99.90;;;;;;10417512;28;20662;-64
2023/12/22 15:00:43;;;;;;;3.20;1.23;;;10.10;99.90;;;;;;10366506;28;20208;-62
2023/12/22 15:05:46;;;;;;;6.17;1.83;;;10.10;99.90;;;;;;10418076;28;20224;-64
2023/12/22 15:10:52;;;;;;;4.13;1.40;;;10.10;99.90;;;;;;10410009;28;20266;-64
2023/12/22 15:15:55;;;;;;;6.97;2.40;;;10.00;99.90;;;;;;10354611;28;20251;-65
2023/12/22 15:20:59;;;;;;;8.17;2.43;;;9.90;99.90;;;;;;10260534;28;20255;-66
2023/12/22 15:26:04;;;;;;;3.60;1.43;;;9.90;99.90;;;;;;10416667;28;20224;-65
2023/12/22 15:31:09;;;;;;;5.97;1.87;;;9.90;99.90;;;;;;10417934;28;20749;-65
2023/12/22 15:36:19;;;;;;;12.20;2.33;;;9.90;99.90;;;;;;10278418;28;20403;-66
2023/12/22 15:41:31;;;;;;;10.43;2.37;;;9.90;99.90;;;;;;10194599;28;20461;-60
2023/12/22 15:46:35;;;;;;;13.13;3.57;;;9.80;99.90;;;;;;10324953;28;20219;-63
2023/12/22 15:51:38;;;;;;;4.47;1.50;;;9.70;99.90;;;;;;10420284;28;20204;-61
2023/12/22 15:56:43;;;;;;;11.00;3.47;;;9.70;99.90;;;;;;10423267;28;20474;-64
2023/12/22 16:01:47;;;;;;;6.20;2.10;;;9.80;99.90;;;;;;10411246;28;20441;-63
2023/12/22 16:06:51;;;;;;;6.90;2.10;;;9.90;99.90;;;;;;10417689;28;20204;-62
2023/12/22 16:11:57;;;;;;;10.27;2.87;;;9.90;99.90;;;;;;10420667;28;20208;-63
2023/12/22 16:17:01;;;;;;;9.27;2.57;;;9.90;99.90;;;;;;10414831;28;20596;-63
2023/12/22 16:22:05;;;;;;;22.57;4.97;;;9.90;99.90;;;;;;10420627;28;20261;-60
2023/12/22 16:27:11;;;;;;;6.53;2.30;;;9.90;99.90;;;;;;10423037;28;20197;-62
2023/12/22 16:32:15;;;;;;;7.07;1.60;;;9.80;99.90;;;;;;10429145;28;20250;-63
2023/12/22 16:37:19;;;;;;;8.23;1.70;;;9.80;99.90;;;;;;10426954;28;20265;-62
2023/12/22 16:42:26;;;;;;;11.07;2.93;;;9.80;99.90;;;;;;10423540;28;20223;-63
2023/12/22 16:47:31;;;;;;;6.80;2.03;;;9.80;99.90;;;;;;10436406;28;20199;-62
2023/12/22 16:52:35;;;;;;;6.13;2.10;;;9.80;99.90;;;;;;10441448;28;20285;-63
2023/12/22 16:57:40;;;;;;;7.17;2.03;;;9.80;99.90;;;;;;10423754;28;20266;-61
2023/12/22 17:02:46;;;;;;;11.53;3.37;;;9.80;99.90;;;;;;10430942;28;20768;-63
2023/12/22 17:07:52;;;;;;;8.63;2.50;;;9.80;99.90;;;;;;10396603;28;20201;-61
2023/12/22 17:13:01;;;;;;;5.73;2.17;;;9.80;99.90;;;;;;10078643;28;20228;-64
2023/12/22 17:18:06;;;;;;;8.23;2.53;;;9.80;99.90;;;;;;10249913;28;20710;-63
2023/12/22 17:23:09;;;;;;;4.70;1.77;;;9.90;99.90;;;;;;10410836;28;20603;-63
2023/12/22 17:28:14;;;;;;;6.50;1.70;;;9.90;99.90;;;;;;10411405;28;20197;-63
2023/12/22 17:33:18;;;;;;;9.23;2.50;;;9.90;99.90;;;;;;10410578;28;20264;-62
2023/12/22 17:38:25;;;;;;;7.37;2.00;;;9.90;99.90;;;;;;10379512;28;20223;-62
2023/12/22 17:43:30;;;;;;;8.90;2.07;;;9.80;99.90;;;;;;10128810;28;21303;-61
2023/12/22 17:48:34;;;;;;;8.77;2.20;;;9.80;99.90;;;;;;10103139;28;21085;-60
2023/12/22 17:53:38;;;;;;;15.17;2.90;;;9.80;99.90;;;;;;10205857;28;20381;-62
2023/12/22 17:58:44;;;;;;;2.57;0.60;;;9.70;99.90;;;;;;10066981;28;20616;-62
2023/12/22 18:03:53;;;;;;;1.93;0.80;;;9.60;99.90;;;;;;10117453;28;20315;-58
2023/12/22 18:08:58;;;;;;;21.00;4.93;;;9.40;99.90;;;;;;10135427;28;20740;-58
2023/12/22 18:14:10;;;;;;;8.47;2.63;;;9.40;99.90;;;;;;10094504;28;20224;-68
2023/12/22 18:19:16;;;;;;;8.03;2.20;;;9.30;99.90;;;;;;10104343;28;20437;-62
2023/12/22 18:24:22;;;;;;;25.43;7.40;;;9.20;99.90;;;;;;10178676;28;20467;-63
2023/12/22 18:29:27;;;;;;;10.37;3.93;;;9.20;99.90;;;;;;10145341;28;20290;-59
2023/12/22 18:34:31;;;;;;;2.10;0.80;;;9.10;99.90;;;;;;10150409;28;20302;-58
2023/12/22 18:39:36;;;;;;;11.43;3.30;;;9.10;99.90;;;;;;10183231;28;21107;-58
2023/12/22 18:44:44;;;;;;;5.77;1.90;;;9.00;99.90;;;;;;10095413;28;20272;-60
2023/12/22 18:49:49;;;;;;;15.53;5.80;;;9.00;99.90;;;;;;10104832;28;20227;-65
2023/12/22 19:00:16;;;;;;;10.47;2.33;;;9.00;99.90;;;;;;10156482;28;21200;-67
2023/12/22 19:05:25;;;;;;;7.47;1.93;;;8.90;99.90;;;;;;10151744;28;20314;-65
2023/12/22 19:10:39;;;;;;;12.97;3.57;;;8.90;99.90;;;;;;10162976;28;20788;-62
2023/12/22 19:15:48;;;;;;;17.60;5.00;;;8.90;99.90;;;;;;10062425;28;20508;-66
2023/12/22 19:20:54;;;;;;;12.87;2.13;;;9.00;99.90;;;;;;10070242;28;20382;-62
2023/12/22 19:26:02;;;;;;;6.23;1.90;;;8.90;99.90;;;;;;10108553;28;20748;-63
2023/12/22 19:31:08;;;;;;;4.30;1.33;;;9.00;99.90;;;;;;10073584;28;20471;-62
2023/12/22 19:36:17;;;;;;;13.83;3.50;;;9.00;99.90;;;;;;10090911;28;20551;-64
2023/12/22 19:41:23;;;;;;;10.87;3.40;;;8.90;99.90;;;;;;10137686;28;21672;-60
2023/12/22 19:46:29;;;;;;;8.30;2.10;;;9.00;99.90;;;;;;10124232;28;20805;-58
2023/12/22 19:51:34;;;;;;;11.60;2.57;;;8.90;99.90;;;;;;10108425;28;20219;-60
2023/12/22 19:56:38;;;;;;;15.57;4.53;;;8.90;99.90;;;;;;10059341;28;20224;-63
2023/12/22 20:01:46;;;;;;;4.77;1.40;;;8.90;99.90;;;;;;10063331;28;20319;-62
2023/12/22 20:06:50;;;;;;;12.40;2.07;;;8.90;99.90;;;;;;10064401;28;20576;-60
2023/12/22 20:11:56;;;;;;;4.03;1.33;;;8.90;99.90;;;;;;10056589;28;20681;-62
2023/12/22 20:17:03;;;;;;;6.10;1.87;;;8.90;99.90;;;;;;10047170;28;20323;-62
2023/12/22 20:22:10;;;;;;;4.23;1.37;;;8.90;99.90;;;;;;10064807;28;20399;-61
2023/12/22 20:27:15;;;;;;;5.77;1.40;;;8.90;99.90;;;;;;10119967;28;20696;-60
2023/12/22 20:32:21;;;;;;;5.07;1.67;;;8.90;99.90;;;;;;9999668;28;20660;-65
2023/12/22 20:37:25;;;;;;;8.27;1.67;;;8.80;99.90;;;;;;10068193;28;20374;-62
2023/12/22 20:42:29;;;;;;;5.20;1.70;;;8.80;99.90;;;;;;10104253;28;20350;-62
2023/12/22 20:47:35;;;;;;;6.20;2.27;;;8.80;99.90;;;;;;10123959;28;20570;-63
2023/12/22 20:52:39;;;;;;;4.97;1.43;;;8.80;99.90;;;;;;10054314;28;20354;-66
2023/12/22 20:57:46;;;;;;;3.93;1.10;;;8.80;99.90;;;;;;10054938;28;20350;-64
2023/12/22 21:02:55;;;;;;;4.23;0.97;;;8.70;99.90;;;;;;10016023;28;20589;-62
2023/12/22 21:08:02;;;;;;;10.13;3.33;;;8.70;99.90;;;;;;10043782;28;20749;-70
2023/12/22 21:13:07;;;;;;;5.43;1.20;;;8.70;99.90;;;;;;10031850;28;20449;-71
2023/12/22 21:18:13;;;;;;;7.70;1.73;;;8.70;99.90;;;;;;10032041;28;20338;-68
2023/12/22 21:23:17;;;;;;;9.37;2.87;;;8.70;99.90;;;;;;10031026;28;24172;-71
2023/12/22 21:28:25;;;;;;;5.17;1.80;;;8.70;99.90;;;;;;10084773;28;20311;-68
2023/12/22 21:33:30;;;;;;;3.73;0.97;;;8.60;99.90;;;;;;10070578;28;20949;-70
2023/12/22 21:38:35;;;;;;;10.00;1.53;;;8.60;99.90;;;;;;10042757;28;20508;-64
2023/12/22 21:43:42;;;;;;;4.20;1.00;;;8.60;99.90;;;;;;10050856;28;20747;-66
2023/12/22 21:48:48;;;;;;;2.70;1.00;;;8.60;99.90;;;;;;10023558;28;20204;-64
2023/12/22 21:53:53;;;;;;;3.07;1.30;;;8.60;99.90;;;;;;10045300;28;21615;-63
2023/12/22 21:58:57;;;;;;;5.07;1.63;;;8.60;99.90;;;;;;10050052;28;21209;-62
2023/12/22 22:04:03;;;;;;;6.90;1.53;;;8.60;99.90;;;;;;10044412;28;20325;-65
2023/12/22 22:09:07;;;;;;;4.23;1.10;;;8.60;99.90;;;;;;10078106;28;20656;-64
2023/12/22 22:14:12;;;;;;;8.53;1.33;;;8.60;99.90;;;;;;10033526;28;20660;-64
2023/12/22 22:19:34;;;;;;;8.30;1.67;;;8.60;99.90;;;;;;10081154;28;20601;-66
2023/12/22 22:24:44;;;;;;;8.63;2.40;;;8.60;99.90;;;;;;10093823;28;20374;-68
2023/12/22 22:29:54;;;;;;;5.67;1.33;;;8.60;99.90;;;;;;10023311;28;20362;-63
2023/12/22 22:34:59;;;;;;;3.40;1.20;;;8.60;99.90;;;;;;10052867;28;20323;-65
2023/12/22 22:40:05;;;;;;;4.60;1.50;;;8.60;99.90;;;;;;10091220;28;20694;-61
2023/12/22 22:45:12;;;;;;;5.33;1.27;;;8.60;99.90;;;;;;10051098;28;20350;-63
2023/12/22 22:50:18;;;;;;;5.13;1.10;;;8.60;99.90;;;;;;10066507;28;20347;-63
2023/12/22 22:55:22;;;;;;;6.93;1.43;;;8.50;99.90;;;;;;10110338;28;20648;-67
2023/12/22 23:00:28;;;;;;;11.90;2.50;;;8.50;99.90;;;;;;10051835;28;20698;-62
2023/12/22 23:05:38;;;;;;;8.57;1.97;;;8.60;99.90;;;;;;10076671;28;20897;-64
2023/12/22 23:10:42;;;;;;;6.63;1.50;;;8.60;99.90;;;;;;10052007;28;20950;-66
2023/12/22 23:15:48;;;;;;;8.10;1.43;;;8.50;99.90;;;;;;10028623;28;20346;-65
2023/12/22 23:20:54;;;;;;;4.47;1.40;;;8.50;99.90;;;;;;10210055;23;20369;-64
2023/12/22 23:25:58;;;;;;;14.43;2.40;;;8.50;99.90;;;;;;10117143;28;20584;-64
2023/12/22 23:31:03;;;;;;;10.27;2.40;;;8.50;99.90;;;;;;10176189;28;20227;-66
2023/12/22 23:36:09;;;;;;;9.87;1.77;;;8.50;99.90;;;;;;10161885;28;20242;-63
2023/12/22 23:41:30;;;;;;;8.57;1.40;;;8.50;99.90;;;;;;10140969;28;20860;-64
2023/12/22 23:46:43;;;;;;;7.47;2.07;;;8.50;99.90;;;;;;10172493;28;20246;-68
2023/12/22 23:51:51;;;;;;;7.47;1.47;;;8.50;99.90;;;;;;10215554;28;20203;-65
2023/12/22 23:56:55;;;;;;;8.63;1.80;;;8.40;99.90;;;;;;10149039;28;20207;-64
